createdAt,value
2022-12-04T00:01:19.280Z,21.40
2022-12-04T00:03:46.656Z,20.20
2022-12-04T00:06:19.308Z,20.90
2022-12-04T00:08:47.837Z,25.70
2022-12-04T00:11:19.288Z,22.40
2022-12-04T00:13:46.372Z,20.25
2022-12-04T00:16:18.837Z,17.25
2022-12-04T00:21:15.931Z,24.25
2022-12-04T00:23:43.235Z,19.40
2022-12-04T00:26:23.484Z,21.70
2022-12-04T00:28:51.148Z,18.10
2022-12-04T00:31:27.783Z,19.10
2022-12-04T00:33:54.892Z,22.33
2022-12-04T00:36:25.082Z,23.77
2022-12-04T00:38:52.795Z,22.38
2022-12-04T00:41:24.625Z,23.83
2022-12-04T00:43:52.214Z,20.35
2022-12-04T00:46:19.815Z,21.70
2022-12-04T00:48:46.823Z,22.27
2022-12-04T00:51:21.267Z,25.00
2022-12-04T00:53:48.377Z,24.10
2022-12-04T00:56:24.360Z,23.40
2022-12-04T00:58:58.007Z,21.10
2022-12-04T01:01:26.366Z,24.95
2022-12-04T01:03:55.138Z,24.02
2022-12-04T01:06:26.636Z,21.42
2022-12-04T01:08:55.471Z,19.70
2022-12-04T01:11:24.910Z,19.80
2022-12-04T01:13:52.111Z,18.92
2022-12-04T01:16:33.452Z,18.48
2022-12-04T01:19:01.096Z,19.17
2022-12-04T01:21:28.353Z,19.50
2022-12-04T01:23:55.312Z,20.85
2022-12-04T01:26:22.110Z,19.98
2022-12-04T01:28:48.926Z,22.42
2022-12-04T01:31:19.779Z,20.75
2022-12-04T01:33:48.034Z,20.05
2022-12-04T01:36:19.287Z,20.00
2022-12-04T01:38:46.752Z,21.48
2022-12-04T01:41:16.250Z,18.42
2022-12-04T01:43:43.391Z,22.67
2022-12-04T01:46:10.705Z,19.15
2022-12-04T01:48:48.188Z,18.63
2022-12-04T01:51:26.535Z,19.65
2022-12-04T01:53:58.531Z,17.40
2022-12-04T01:56:38.598Z,19.40
2022-12-04T01:59:08.405Z,20.55
2022-12-04T02:01:44.518Z,18.17
2022-12-04T02:04:11.289Z,20.55
2022-12-04T02:06:38.063Z,17.65
2022-12-04T02:09:04.863Z,21.33
2022-12-04T02:11:47.084Z,19.52
2022-12-04T02:14:33.462Z,13.05
2022-12-04T02:17:14.609Z,19.35
2022-12-04T02:20:14.233Z,18.88
2022-12-04T02:23:09.415Z,20.70
2022-12-04T02:25:59.971Z,23.42
2022-12-04T02:28:54.229Z,20.70
2022-12-04T02:31:28.524Z,18.17
2022-12-04T02:34:04.607Z,16.75
2022-12-04T02:36:47.837Z,19.08
2022-12-04T02:42:13.015Z,20.35
2022-12-04T02:44:45.547Z,14.38
2022-12-04T02:47:15.404Z,14.50
2022-12-04T02:49:50.519Z,20.30
2022-12-04T02:52:24.757Z,20.75
2022-12-04T02:54:57.682Z,18.40
2022-12-04T02:57:31.944Z,19.23
2022-12-04T03:00:00.520Z,22.65
2022-12-04T03:02:40.365Z,22.70
2022-12-04T03:05:18.944Z,20.42
2022-12-04T03:07:54.423Z,21.52
2022-12-04T03:10:31.914Z,19.08
2022-12-04T03:13:15.964Z,20.90
2022-12-04T03:15:47.655Z,16.98
2022-12-04T03:18:27.067Z,15.95
2022-12-04T03:21:03.789Z,17.48
2022-12-04T03:23:37.645Z,20.98
2022-12-04T03:26:28.915Z,20.02
2022-12-04T03:29:07.812Z,19.30
2022-12-04T03:31:49.340Z,18.77
2022-12-04T03:34:29.080Z,19.50
2022-12-04T03:37:06.906Z,18.50
2022-12-04T03:39:57.436Z,16.77
2022-12-04T03:42:31.734Z,21.13
2022-12-04T03:45:14.717Z,22.85
2022-12-04T03:47:57.077Z,22.00
2022-12-04T03:50:39.988Z,19.53
2022-12-04T03:53:18.319Z,19.73
2022-12-04T03:55:59.061Z,21.98
2022-12-04T03:58:31.184Z,18.80
2022-12-04T04:01:00.179Z,15.97
2022-12-04T04:03:35.651Z,18.30
2022-12-04T04:06:19.402Z,21.75
2022-12-04T04:08:51.108Z,18.05
2022-12-04T04:11:36.112Z,21.92
2022-12-04T04:14:27.501Z,21.42
2022-12-04T04:17:21.803Z,21.38
2022-12-04T04:20:15.164Z,18.67
2022-12-04T04:23:01.475Z,20.83
2022-12-04T04:25:29.259Z,21.60
2022-12-04T04:27:58.689Z,19.00
2022-12-04T04:30:26.817Z,19.98
2022-12-04T04:33:11.670Z,21.08
2022-12-04T04:35:53.453Z,18.00
2022-12-04T04:38:32.127Z,18.88
2022-12-04T04:41:29.597Z,19.70
2022-12-04T04:45:02.296Z,20.45
2022-12-04T04:47:45.723Z,19.20
2022-12-04T04:50:13.931Z,23.17
2022-12-04T04:52:47.263Z,16.25
2022-12-04T04:55:15.936Z,19.98
2022-12-04T04:57:42.855Z,20.40
2022-12-04T05:00:21.706Z,19.60
2022-12-04T05:02:50.140Z,20.10
2022-12-04T05:05:18.106Z,18.55
2022-12-04T05:07:44.939Z,19.48
2022-12-04T05:10:11.855Z,22.15
2022-12-04T05:12:38.637Z,18.05
2022-12-04T05:15:06.047Z,20.67
2022-12-04T05:17:36.092Z,17.75
2022-12-04T05:20:05.326Z,24.08
2022-12-04T05:22:35.595Z,19.65
2022-12-04T05:25:03.825Z,19.00
2022-12-04T05:27:31.471Z,21.40
2022-12-04T05:29:59.296Z,19.80
2022-12-04T05:32:29.133Z,20.15
2022-12-04T05:34:57.782Z,17.77
2022-12-04T05:37:25.909Z,19.63
2022-12-04T05:39:53.013Z,19.63
2022-12-04T05:42:20.163Z,21.92
2022-12-04T05:44:48.473Z,20.58
2022-12-04T05:47:15.488Z,20.48
2022-12-04T05:49:42.357Z,16.88
2022-12-04T05:52:10.492Z,21.45
2022-12-04T05:54:37.482Z,19.48
2022-12-04T05:57:04.387Z,18.17
2022-12-04T05:59:31.204Z,22.33
2022-12-04T06:01:58.029Z,14.85
2022-12-04T06:04:24.955Z,18.63
2022-12-04T06:06:54.295Z,18.65
2022-12-04T06:09:21.544Z,17.92
2022-12-04T06:11:48.299Z,18.80
2022-12-04T06:14:16.232Z,21.08
2022-12-04T06:16:46.071Z,17.83
2022-12-04T06:19:17.563Z,20.73
2022-12-04T06:21:48.419Z,19.05
2022-12-04T06:24:22.618Z,16.92
2022-12-04T06:27:25.641Z,18.00
2022-12-04T06:29:37.624Z,16.45
2022-12-04T06:32:04.798Z,15.07
2022-12-04T06:34:32.363Z,17.20
2022-12-04T06:36:59.136Z,20.05
2022-12-04T06:39:25.940Z,16.55
2022-12-04T06:41:52.783Z,17.10
2022-12-04T06:44:19.585Z,20.15
2022-12-04T06:46:47.325Z,21.67
2022-12-04T06:49:14.874Z,18.80
2022-12-04T06:51:41.746Z,20.50
2022-12-04T06:54:10.181Z,14.77
2022-12-04T06:56:36.980Z,17.73
2022-12-04T06:59:04.490Z,19.85
2022-12-04T07:01:34.445Z,41.35
2022-12-04T07:04:03.803Z,20.90
2022-12-04T07:06:34.946Z,17.83
2022-12-04T07:09:10.473Z,19.83
2022-12-04T07:11:39.094Z,16.92
2022-12-04T07:14:05.908Z,18.23
2022-12-04T07:16:38.670Z,19.25
2022-12-04T07:19:08.645Z,16.30
2022-12-04T07:21:35.524Z,17.67
2022-12-04T07:24:02.527Z,17.92
2022-12-04T07:26:30.787Z,20.20
2022-12-04T07:28:58.860Z,22.70
2022-12-04T07:31:28.034Z,22.35
2022-12-04T07:33:55.853Z,22.10
2022-12-04T07:36:24.412Z,18.75
2022-12-04T07:38:52.245Z,22.40
2022-12-04T07:41:19.594Z,19.38
2022-12-04T07:43:46.678Z,20.85
2022-12-04T07:46:21.388Z,19.58
2022-12-04T07:48:48.345Z,26.23
2022-12-04T07:51:24.168Z,22.42
2022-12-04T07:53:53.327Z,29.60
2022-12-04T07:56:21.227Z,24.33
2022-12-04T07:58:48.604Z,22.30
2022-12-04T08:01:19.578Z,19.90
2022-12-04T08:03:49.030Z,18.92
2022-12-04T08:06:19.244Z,21.33
2022-12-04T08:08:47.369Z,24.80
2022-12-04T08:11:17.908Z,21.83
2022-12-04T08:13:45.367Z,22.10
2022-12-04T08:16:13.575Z,22.50
2022-12-04T08:18:41.675Z,21.08
2022-12-04T08:21:15.425Z,34.90
2022-12-04T08:23:44.021Z,23.33
2022-12-04T08:26:11.960Z,25.38
2022-12-04T08:28:39.901Z,37.13
2022-12-04T08:31:19.168Z,27.42
2022-12-04T08:33:47.667Z,25.90
2022-12-04T08:36:20.267Z,30.75
2022-12-04T08:38:48.439Z,22.90
2022-12-04T08:41:17.975Z,28.75
2022-12-04T08:43:45.217Z,23.48
2022-12-04T08:46:16.023Z,26.95
2022-12-04T08:48:43.816Z,21.70
2022-12-04T08:51:24.145Z,20.35
2022-12-04T08:54:00.814Z,26.20
2022-12-04T08:56:29.797Z,20.75
2022-12-04T08:58:57.655Z,21.05
2022-12-04T09:01:25.804Z,21.55
2022-12-04T09:03:53.093Z,21.42
2022-12-04T09:06:20.547Z,18.52
2022-12-04T09:08:47.764Z,21.13
2022-12-04T09:11:19.933Z,19.23
2022-12-04T09:13:47.916Z,17.73
2022-12-04T09:16:22.067Z,20.25
2022-12-04T09:18:49.584Z,20.15
2022-12-04T09:21:19.166Z,18.27
2022-12-04T09:23:47.182Z,22.00
2022-12-04T09:26:28.340Z,20.73
2022-12-04T09:28:57.904Z,22.23
2022-12-04T09:31:25.376Z,20.90
2022-12-04T09:33:52.794Z,26.10
2022-12-04T09:36:20.447Z,20.52
2022-12-04T09:38:50.620Z,22.52
2022-12-04T09:41:25.352Z,24.20
2022-12-04T09:43:57.857Z,17.30
2022-12-04T09:46:37.888Z,20.88
2022-12-04T09:49:17.539Z,24.75
2022-12-04T09:51:45.171Z,28.27
2022-12-04T09:54:19.740Z,29.92
2022-12-04T09:57:12.961Z,26.73
2022-12-04T09:59:39.831Z,30.55
2022-12-04T10:02:09.586Z,26.02
2022-12-04T10:04:36.552Z,30.23
2022-12-04T10:07:14.432Z,32.42
2022-12-04T10:09:56.345Z,41.90
2022-12-04T10:12:42.025Z,35.03
2022-12-04T10:15:45.160Z,36.60
2022-12-04T10:18:33.879Z,30.27
2022-12-04T10:21:12.876Z,27.33
2022-12-04T10:24:16.461Z,36.58
2022-12-04T10:26:48.474Z,29.25
2022-12-04T10:29:29.522Z,21.05
2022-12-04T10:32:16.468Z,25.80
2022-12-04T10:34:46.127Z,28.83
2022-12-04T10:37:15.159Z,26.35
2022-12-04T10:40:13.439Z,27.05
2022-12-04T10:42:54.523Z,29.98
2022-12-04T10:45:23.129Z,29.20
2022-12-04T10:47:51.976Z,41.40
2022-12-04T10:50:24.172Z,29.63
2022-12-04T10:52:51.428Z,19.33
2022-12-04T10:55:47.569Z,32.20
2022-12-04T10:58:21.052Z,34.22
2022-12-04T11:01:05.480Z,33.65
2022-12-04T11:03:32.771Z,26.20
2022-12-04T11:06:05.696Z,40.78
2022-12-04T11:08:41.408Z,30.05
2022-12-04T11:11:13.507Z,23.90
2022-12-04T11:13:41.807Z,17.40
2022-12-04T11:16:33.802Z,23.45
2022-12-04T11:19:00.720Z,26.73
2022-12-04T11:21:31.222Z,26.52
2022-12-04T11:23:58.841Z,25.50
2022-12-04T11:26:35.954Z,29.63
2022-12-04T11:29:05.240Z,31.65
2022-12-04T11:31:33.041Z,31.70
2022-12-04T11:34:08.582Z,28.60
2022-12-04T11:36:41.238Z,31.35
2022-12-04T11:39:33.334Z,31.85
2022-12-04T11:42:06.254Z,30.30
2022-12-04T11:44:36.167Z,35.97
2022-12-04T11:47:05.468Z,28.35
2022-12-04T11:49:33.314Z,29.60
2022-12-04T11:52:27.193Z,33.78
2022-12-04T11:55:28.606Z,31.83
2022-12-04T11:58:53.113Z,30.77
2022-12-04T12:01:38.415Z,32.35
2022-12-04T12:04:47.122Z,26.15
2022-12-04T12:07:16.998Z,31.23
2022-12-04T12:09:53.475Z,34.15
2022-12-04T12:12:45.680Z,36.45
2022-12-04T12:15:33.823Z,36.72
2022-12-04T12:19:08.608Z,43.90
2022-12-04T12:21:51.446Z,38.15
2022-12-04T12:24:42.224Z,27.13
2022-12-04T12:27:45.359Z,33.40
2022-12-04T12:30:21.995Z,32.33
2022-12-04T12:33:13.057Z,26.08
2022-12-04T12:36:09.382Z,28.05
2022-12-04T12:39:16.642Z,30.52
2022-12-04T12:41:52.294Z,27.75
2022-12-04T12:44:26.135Z,27.92
2022-12-04T12:47:00.325Z,23.13
2022-12-04T12:49:58.062Z,25.27
2022-12-04T12:52:45.836Z,22.58
2022-12-04T12:55:32.178Z,23.90
2022-12-04T12:58:34.311Z,25.45
2022-12-04T13:01:18.391Z,24.35
2022-12-04T13:04:03.679Z,23.15
2022-12-04T13:06:39.676Z,23.48
2022-12-04T13:09:20.657Z,27.77
2022-12-04T13:11:50.889Z,27.35
2022-12-04T13:14:17.868Z,26.38
2022-12-04T13:16:54.337Z,24.83
2022-12-04T13:19:24.583Z,26.83
2022-12-04T13:22:51.987Z,29.60
2022-12-04T13:26:02.077Z,25.02
2022-12-04T13:28:53.979Z,28.92
2022-12-04T13:31:49.398Z,25.75
2022-12-04T13:34:39.140Z,32.72
2022-12-04T13:37:58.164Z,26.30
2022-12-04T13:40:47.854Z,28.55
2022-12-04T13:43:44.400Z,26.30
2022-12-04T13:46:35.677Z,23.60
2022-12-04T13:49:17.743Z,25.38
2022-12-04T13:51:49.520Z,28.15
2022-12-04T13:54:16.323Z,25.35
2022-12-04T13:56:46.848Z,21.98
2022-12-04T13:59:43.696Z,23.45
2022-12-04T14:02:38.048Z,27.25
2022-12-04T14:05:09.232Z,28.48
2022-12-04T14:07:43.852Z,26.42
2022-12-04T14:10:17.046Z,27.08
2022-12-04T14:13:01.048Z,22.70
2022-12-04T14:15:34.622Z,27.58
2022-12-04T14:18:14.044Z,22.52
2022-12-04T14:20:46.873Z,21.73
2022-12-04T14:23:18.024Z,26.55
2022-12-04T14:25:44.982Z,22.50
2022-12-04T14:28:27.990Z,24.83
2022-12-04T14:31:40.098Z,26.17
2022-12-04T14:34:29.858Z,27.77
2022-12-04T14:36:58.319Z,25.42
2022-12-04T14:39:28.936Z,27.60
2022-12-04T14:42:17.068Z,24.08
2022-12-04T14:44:46.599Z,27.65
2022-12-04T14:47:57.016Z,27.30
2022-12-04T14:51:03.151Z,28.42
2022-12-04T14:53:44.322Z,35.40
2022-12-04T14:56:36.497Z,36.33
2022-12-04T14:59:22.713Z,29.23
2022-12-04T15:01:51.694Z,28.85
2022-12-04T15:04:35.224Z,28.23
2022-12-04T15:07:02.969Z,29.73
2022-12-04T15:09:48.393Z,29.13
2022-12-04T15:12:35.689Z,27.90
2022-12-04T15:15:35.491Z,26.52
2022-12-04T15:18:12.400Z,25.05
2022-12-04T15:20:57.493Z,27.60
2022-12-04T15:23:37.979Z,30.17
2022-12-04T15:26:17.905Z,33.33
2022-12-04T15:29:00.565Z,36.05
2022-12-04T15:31:39.319Z,24.10
2022-12-04T15:34:20.685Z,24.55
2022-12-04T15:37:00.642Z,27.73
2022-12-04T15:39:30.145Z,30.30
2022-12-04T15:42:14.883Z,30.23
2022-12-04T15:45:01.351Z,28.02
2022-12-04T15:47:42.060Z,28.25
2022-12-04T15:50:27.111Z,28.02
2022-12-04T15:53:17.089Z,27.08
2022-12-04T15:55:54.534Z,27.85
2022-12-04T15:58:30.964Z,28.77
2022-12-04T16:01:13.182Z,31.05
2022-12-04T16:03:47.995Z,27.38
2022-12-04T16:06:21.589Z,25.33
2022-12-04T16:09:22.890Z,31.65
2022-12-04T16:12:03.635Z,20.42
2022-12-04T16:14:30.655Z,27.80
2022-12-04T16:17:05.841Z,27.50
2022-12-04T16:19:37.380Z,27.05
2022-12-04T16:22:16.541Z,29.08
2022-12-04T16:24:45.381Z,27.40
2022-12-04T16:27:16.138Z,25.58
2022-12-04T16:29:43.625Z,25.67
2022-12-04T16:32:17.355Z,29.60
2022-12-04T16:34:44.461Z,30.75
2022-12-04T16:37:18.495Z,23.55
2022-12-04T16:39:46.277Z,27.65
2022-12-04T16:42:19.967Z,31.48
2022-12-04T16:44:47.387Z,33.17
2022-12-04T16:47:15.671Z,35.88
2022-12-04T16:49:43.714Z,35.10
2022-12-04T16:52:12.312Z,31.05
2022-12-04T16:54:40.151Z,29.38
2022-12-04T16:57:08.944Z,25.88
2022-12-04T16:59:36.436Z,26.00
2022-12-04T17:02:14.523Z,31.55
2022-12-04T17:04:41.623Z,29.52
2022-12-04T17:07:09.921Z,34.35
2022-12-04T17:09:36.800Z,34.15
2022-12-04T17:12:03.800Z,30.55
2022-12-04T17:14:30.794Z,25.55
2022-12-04T17:16:58.880Z,29.23
2022-12-04T17:19:25.998Z,28.83
2022-12-04T17:21:52.892Z,33.83
2022-12-04T17:24:20.484Z,30.70
2022-12-04T17:26:47.371Z,29.27
2022-12-04T17:29:14.280Z,30.30
2022-12-04T17:31:41.310Z,31.40
2022-12-04T17:34:08.247Z,28.77
2022-12-04T17:36:35.083Z,33.47
2022-12-04T17:39:02.624Z,30.98
2022-12-04T17:41:29.599Z,32.60
2022-12-04T17:43:56.466Z,32.00
2022-12-04T17:46:24.549Z,29.52
2022-12-04T17:48:51.662Z,31.42
2022-12-04T17:51:23.860Z,28.08
2022-12-04T17:53:51.834Z,27.97
2022-12-04T17:56:22.223Z,36.20
2022-12-04T17:58:49.975Z,30.48
2022-12-04T18:01:26.241Z,38.95
2022-12-04T18:04:03.127Z,41.72
2022-12-04T18:06:42.928Z,39.35
2022-12-04T18:09:12.841Z,48.67
2022-12-04T18:11:42.712Z,37.67
2022-12-04T18:14:13.732Z,48.05
2022-12-04T18:16:45.767Z,50.38
2022-12-04T18:19:14.141Z,27.97
2022-12-04T18:21:41.609Z,53.22
2022-12-04T18:24:09.229Z,39.72
2022-12-04T18:26:40.755Z,36.60
2022-12-04T18:29:10.338Z,32.08
2022-12-04T18:31:37.188Z,34.35
2022-12-04T18:34:06.798Z,33.35
2022-12-04T18:36:35.473Z,32.00
2022-12-04T18:39:06.131Z,29.42
2022-12-04T18:41:33.091Z,26.30
2022-12-04T18:43:59.907Z,25.35
2022-12-04T18:46:26.790Z,26.35
2022-12-04T18:48:55.617Z,29.95
2022-12-04T18:51:32.254Z,25.23
2022-12-04T18:54:06.506Z,29.73
2022-12-04T18:56:35.404Z,28.38
2022-12-04T18:59:13.717Z,30.95
2022-12-04T19:01:41.708Z,30.60
2022-12-04T19:04:11.830Z,28.65
2022-12-04T19:06:45.214Z,28.17
2022-12-04T19:09:16.964Z,31.83
2022-12-04T19:11:45.064Z,29.80
2022-12-04T19:14:22.401Z,27.15
2022-12-04T19:16:50.535Z,31.02
2022-12-04T19:19:18.009Z,30.63
2022-12-04T19:21:44.963Z,30.02
2022-12-04T19:24:12.467Z,28.33
2022-12-04T19:26:39.998Z,29.13
2022-12-04T19:29:07.966Z,30.27
2022-12-04T19:31:37.554Z,31.42
2022-12-04T19:34:06.192Z,27.48
2022-12-04T19:36:34.828Z,33.15
2022-12-04T19:39:03.526Z,28.15
2022-12-04T19:41:33.708Z,29.55
2022-12-04T19:44:01.164Z,32.60
2022-12-04T19:46:30.915Z,27.73
2022-12-04T19:49:02.105Z,30.48
2022-12-04T19:51:32.056Z,29.00
2022-12-04T19:54:00.865Z,27.77
2022-12-04T19:56:30.847Z,29.77
2022-12-04T19:59:00.688Z,28.25
2022-12-04T20:01:30.364Z,32.42
2022-12-04T20:04:00.008Z,34.30
2022-12-04T20:06:29.456Z,34.03
2022-12-04T20:09:03.244Z,35.03
2022-12-04T20:11:31.198Z,28.35
2022-12-04T20:14:01.637Z,28.88
2022-12-04T20:16:31.197Z,31.55
2022-12-04T20:18:59.383Z,27.35
2022-12-04T20:21:30.238Z,25.15
2022-12-04T20:24:00.829Z,26.20
2022-12-04T20:26:32.653Z,24.35
2022-12-04T20:29:00.768Z,25.33
2022-12-04T20:31:37.466Z,26.58
2022-12-04T20:34:12.391Z,27.02
2022-12-04T20:36:43.039Z,26.33
2022-12-04T20:39:12.011Z,28.27
2022-12-04T20:41:39.454Z,25.00
2022-12-04T20:44:08.756Z,26.05
2022-12-04T20:46:39.059Z,28.95
2022-12-04T20:49:15.807Z,27.58
2022-12-04T20:51:47.912Z,24.33
2022-12-04T20:54:20.550Z,26.42
2022-12-04T20:56:48.840Z,28.17
2022-12-04T20:59:18.735Z,28.77
2022-12-04T21:01:47.084Z,28.30
2022-12-04T21:04:14.242Z,30.42
2022-12-04T21:06:42.132Z,25.60
2022-12-04T21:09:14.364Z,25.17
2022-12-04T21:11:47.798Z,29.43
2022-12-04T21:14:40.635Z,26.63
2022-12-04T21:17:10.523Z,19.83
2022-12-04T21:19:37.647Z,26.65
2022-12-04T21:22:04.394Z,23.65
2022-12-04T21:24:36.466Z,25.73
2022-12-04T21:27:03.470Z,26.05
2022-12-04T21:29:30.277Z,25.63
2022-12-04T21:31:57.070Z,24.83
2022-12-04T21:34:23.889Z,23.02
2022-12-04T21:36:50.726Z,24.08
2022-12-04T21:39:17.655Z,21.38
2022-12-04T21:42:03.073Z,25.75
2022-12-04T21:44:29.974Z,26.17
2022-12-04T21:46:56.800Z,23.33
2022-12-04T21:49:23.648Z,24.40
2022-12-04T21:51:58.850Z,24.33
2022-12-04T21:54:28.176Z,25.30
2022-12-04T21:56:55.867Z,22.67
2022-12-04T21:59:24.874Z,23.58
2022-12-04T22:01:52.240Z,30.65
2022-12-04T22:04:19.100Z,24.33
2022-12-04T22:06:46.009Z,22.08
2022-12-04T22:09:14.032Z,22.85
2022-12-04T22:11:42.139Z,22.23
2022-12-04T22:14:10.123Z,23.45
2022-12-04T22:16:42.000Z,30.02
2022-12-04T22:19:11.356Z,25.13
2022-12-04T22:21:38.412Z,25.85
2022-12-04T22:24:05.945Z,27.17
2022-12-04T22:26:32.980Z,27.23
2022-12-04T22:28:59.881Z,23.75
2022-12-04T22:31:28.935Z,27.23
2022-12-04T22:33:59.678Z,26.13
2022-12-04T22:36:31.186Z,34.25
2022-12-04T22:39:09.280Z,23.95
2022-12-04T22:41:37.374Z,20.02
2022-12-04T22:44:04.839Z,25.48
2022-12-04T22:46:32.278Z,27.48
2022-12-04T22:49:00.072Z,29.73
2022-12-04T22:51:27.636Z,27.88
2022-12-04T22:53:57.412Z,26.60
2022-12-04T22:56:30.621Z,21.13
2022-12-04T22:58:58.630Z,23.00
2022-12-04T23:01:32.768Z,23.15
2022-12-04T23:04:01.063Z,22.67
2022-12-04T23:06:31.543Z,28.10
2022-12-04T23:09:06.219Z,25.17
2022-12-04T23:11:33.900Z,21.95
2022-12-04T23:14:03.665Z,28.25
2022-12-04T23:16:34.495Z,25.48
2022-12-04T23:19:01.716Z,21.10
2022-12-04T23:21:30.422Z,24.58
2022-12-04T23:23:57.804Z,23.73
2022-12-04T23:26:30.500Z,24.67
2022-12-04T23:28:58.109Z,24.90
2022-12-04T23:31:25.569Z,24.13
2022-12-04T23:33:52.417Z,25.13
2022-12-04T23:36:19.191Z,28.50
2022-12-04T23:38:46.028Z,27.85
2022-12-04T23:41:25.522Z,29.42
2022-12-04T23:43:53.894Z,33.08
2022-12-04T23:46:28.938Z,27.58
2022-12-04T23:48:55.910Z,27.05
2022-12-04T23:51:22.984Z,25.40
2022-12-04T23:53:51.258Z,26.75
2022-12-04T23:56:24.785Z,25.00
2022-12-04T23:58:53.602Z,27.27
